Time;durP1;ratioP1;P1;durP2;ratioP2;P2;SDS_P1;SDS_P2;PMS_P1;PMS_P2;Temp;Humidity;BMP_temperature;BMP_pressure;BME280_temperature;BME280_humidity;BME280_pressure;Samples;Min_cycle;Max_cycle;Signal;HPM_P1;HPM_P2
2022/09/10 00:00:54;;;;;;;23.45;17.35;;;14.70;99.90;;;;;;7393737;19;20495;-85
2022/09/10 00:03:20;;;;;;;21.50;18.77;;;14.70;99.90;;;;;;7394028;19;20031;-84
2022/09/10 00:05:46;;;;;;;22.27;18.00;;;14.70;99.90;;;;;;7391972;19;20010;-83
2022/09/10 00:08:13;;;;;;;22.73;18.13;;;14.70;99.90;;;;;;7392055;19;20015;-84
2022/09/10 00:10:42;;;;;;;18.05;16.05;;;14.70;99.90;;;;;;7391930;19;20074;-85
2022/09/10 00:13:08;;;;;;;24.48;19.25;;;14.80;99.90;;;;;;7391425;19;20476;-85
2022/09/10 00:15:41;;;;;;;23.05;19.13;;;14.80;99.90;;;;;;7393252;19;20010;-84
2022/09/10 00:18:08;;;;;;;19.80;17.60;;;14.90;99.90;;;;;;7401177;19;20026;-84
2022/09/10 00:20:40;;;;;;;22.77;18.45;;;14.90;99.90;;;;;;7399606;19;20077;-85
2022/09/10 00:23:06;;;;;;;23.10;18.50;;;15.00;99.90;;;;;;7398229;19;20021;-84
2022/09/10 00:25:32;;;;;;;20.50;18.35;;;15.10;99.90;;;;;;7397028;19;20360;-84
2022/09/10 00:27:59;;;;;;;23.77;20.45;;;15.10;99.90;;;;;;7401578;19;20038;-84
2022/09/10 00:30:26;;;;;;;22.42;20.05;;;15.00;99.90;;;;;;7398816;19;20022;-84
2022/09/10 00:32:54;;;;;;;22.52;19.92;;;15.00;99.90;;;;;;7399023;19;20084;-84
2022/09/10 00:35:20;;;;;;;20.95;18.73;;;14.90;99.90;;;;;;7400211;19;20022;-85
2022/09/10 00:37:46;;;;;;;25.95;21.65;;;15.00;99.90;;;;;;7398710;19;20011;-84
2022/09/10 00:40:15;;;;;;;23.15;20.75;;;14.90;99.90;;;;;;7396870;19;20018;-85
2022/09/10 00:42:42;;;;;;;23.98;21.38;;;14.90;99.90;;;;;;7397152;19;20018;-84
2022/09/10 00:45:18;;;;;;;25.15;21.77;;;14.90;99.90;;;;;;7397788;19;20062;-84
2022/09/10 00:47:46;;;;;;;16.67;14.85;;;14.90;99.90;;;;;;7397910;19;20014;-84
2022/09/10 00:50:18;;;;;;;22.65;20.15;;;14.90;99.90;;;;;;7396573;19;20014;-84
2022/09/10 00:52:46;;;;;;;18.08;16.02;;;14.90;99.90;;;;;;7401596;19;20014;-84
2022/09/10 00:55:13;;;;;;;23.75;21.13;;;14.90;99.90;;;;;;7398416;19;20360;-85
2022/09/10 00:57:40;;;;;;;23.98;21.05;;;14.80;99.90;;;;;;7398382;19;20084;-84
2022/09/10 01:00:09;;;;;;;25.63;21.90;;;14.80;99.90;;;;;;7397706;19;20018;-84
2022/09/10 01:02:35;;;;;;;25.73;22.92;;;14.70;99.90;;;;;;7401300;19;20011;-84
2022/09/10 01:05:03;;;;;;;24.52;21.67;;;14.70;99.90;;;;;;7401357;19;20014;-84
2022/09/10 01:07:31;;;;;;;25.25;21.55;;;14.60;99.90;;;;;;7398341;19;20348;-84
2022/09/10 01:10:02;;;;;;;18.33;16.25;;;14.60;99.90;;;;;;7400031;19;20021;-84
2022/09/10 01:12:53;;;;;;;24.52;22.02;;;14.60;99.90;;;;;;7396222;19;20484;-85
2022/09/10 01:15:45;;;;;;;26.33;22.85;;;14.50;99.90;;;;;;7397099;19;20480;-84
2022/09/10 01:18:34;;;;;;;25.80;22.17;;;14.50;99.90;;;;;;7399811;19;20007;-84
2022/09/10 01:21:16;;;;;;;26.05;22.85;;;14.50;99.90;;;;;;7397789;19;20014;-84
2022/09/10 01:24:03;;;;;;;26.17;23.30;;;14.50;99.90;;;;;;7393220;19;20037;-85
2022/09/10 01:26:45;;;;;;;24.25;21.65;;;14.40;99.90;;;;;;7399845;19;20042;-84
2022/09/10 01:29:28;;;;;;;25.75;22.83;;;14.40;99.90;;;;;;7395954;19;20014;-84
2022/09/10 01:32:05;;;;;;;24.02;18.65;;;14.40;99.90;;;;;;7396559;19;20022;-84
2022/09/10 01:34:41;;;;;;;27.48;23.88;;;14.40;99.90;;;;;;7396333;19;20090;-84
2022/09/10 01:37:18;;;;;;;26.92;24.20;;;14.40;99.90;;;;;;7396411;19;20483;-84
2022/09/10 01:39:46;;;;;;;26.63;23.77;;;14.40;99.90;;;;;;7396335;19;20015;-84
2022/09/10 01:42:11;;;;;;;25.95;23.17;;;14.40;99.90;;;;;;7397947;19;20021;-84
2022/09/10 01:44:49;;;;;;;29.00;24.08;;;14.40;99.90;;;;;;7393780;19;20429;-84
2022/09/10 01:47:42;;;;;;;27.98;23.48;;;14.40;99.90;;;;;;7396527;19;20011;-85
2022/09/10 01:50:19;;;;;;;29.77;25.83;;;14.40;99.90;;;;;;7396423;19;20040;-84
2022/09/10 01:52:57;;;;;;;22.08;19.83;;;14.40;99.90;;;;;;7394557;19;20018;-84
2022/09/10 01:55:33;;;;;;;31.67;27.70;;;14.40;99.90;;;;;;7396322;19;20103;-84
2022/09/10 01:58:15;;;;;;;26.40;23.58;;;14.40;99.90;;;;;;7395042;19;20014;-84
2022/09/10 02:00:44;;;;;;;;;;;14.40;99.90;;;;;;7401401;19;20479;-84
2022/09/10 02:03:15;;;;;;;29.25;24.65;;;14.40;99.90;;;;;;7397012;19;19923;-84
2022/09/10 02:05:47;;;;;;;29.50;26.20;;;14.50;99.90;;;;;;7398765;19;20018;-85
2022/09/10 02:08:22;;;;;;;28.95;25.48;;;14.50;99.90;;;;;;7396726;19;20015;-85
2022/09/10 02:10:53;;;;;;;30.83;27.15;;;14.50;99.90;;;;;;7395843;19;20031;-85
2022/09/10 02:13:21;;;;;;;28.98;25.88;;;14.50;99.90;;;;;;7395848;19;20046;-84
2022/09/10 02:15:48;;;;;;;32.55;27.35;;;14.50;99.90;;;;;;7395943;19;20029;-84
2022/09/10 02:18:14;;;;;;;32.47;27.38;;;14.50;99.90;;;;;;7395586;19;20015;-85
2022/09/10 02:20:41;;;;;;;35.72;28.67;;;14.40;99.90;;;;;;7395113;19;20006;-84
2022/09/10 02:23:09;;;;;;;31.73;28.10;;;14.40;99.90;;;;;;7392346;19;20082;-84
2022/09/10 02:25:38;;;;;;;33.92;28.55;;;14.30;99.90;;;;;;7396263;19;20014;-84
2022/09/10 02:28:04;;;;;;;36.28;29.88;;;14.30;99.90;;;;;;7394613;19;20014;-84
2022/09/10 02:30:31;;;;;;;37.65;29.48;;;14.30;99.90;;;;;;7395441;19;20018;-84
2022/09/10 02:32:57;;;;;;;34.92;29.33;;;14.30;99.90;;;;;;7396246;19;20035;-85
2022/09/10 02:35:23;;;;;;;33.95;28.40;;;14.20;99.90;;;;;;7394715;19;20054;-84
2022/09/10 02:37:49;;;;;;;38.60;29.38;;;14.20;99.90;;;;;;7394491;19;20382;-84
2022/09/10 02:40:18;;;;;;;38.72;30.50;;;14.30;99.90;;;;;;7394421;19;20014;-85
2022/09/10 02:42:45;;;;;;;38.47;30.73;;;14.30;99.90;;;;;;7393918;19;20010;-85
2022/09/10 02:45:12;;;;;;;46.25;34.33;;;14.30;99.90;;;;;;7393579;19;20107;-85
2022/09/10 02:47:38;;;;;;;39.55;30.77;;;14.30;99.90;;;;;;7393702;19;20488;-85
2022/09/10 02:50:06;;;;;;;41.45;32.65;;;14.30;99.90;;;;;;7395060;19;20018;-84
2022/09/10 02:52:32;;;;;;;40.58;31.35;;;14.40;99.90;;;;;;7394417;19;20015;-85
2022/09/10 02:54:58;;;;;;;46.10;34.22;;;14.40;99.90;;;;;;7393924;19;20043;-85
2022/09/10 02:57:25;;;;;;;45.70;33.95;;;14.30;99.90;;;;;;7392263;19;20018;-85
2022/09/10 02:59:52;;;;;;;47.72;34.13;;;14.40;99.90;;;;;;7393643;19;20040;-85
2022/09/10 03:02:19;;;;;;;43.05;34.20;;;14.50;99.90;;;;;;7392422;19;20019;-85
2022/09/10 03:04:45;;;;;;;49.20;35.10;;;14.50;99.90;;;;;;7396935;19;20022;-84
2022/09/10 03:07:11;;;;;;;43.10;32.75;;;14.50;99.90;;;;;;7394728;19;20018;-85
2022/09/10 03:09:39;;;;;;;47.60;33.92;;;14.50;99.90;;;;;;7392561;19;20779;-85
2022/09/10 03:12:06;;;;;;;43.28;33.33;;;14.50;99.90;;;;;;7393098;19;20011;-84
2022/09/10 03:14:33;;;;;;;46.15;35.08;;;14.50;99.90;;;;;;7393269;19;20020;-84
2022/09/10 03:16:59;;;;;;;38.33;31.30;;;14.50;99.90;;;;;;7391838;19;20018;-85
2022/09/10 03:19:25;;;;;;;44.10;33.13;;;14.60;99.90;;;;;;7393514;19;20019;-84
2022/09/10 03:21:52;;;;;;;50.35;36.17;;;14.50;99.90;;;;;;7393154;19;20023;-84
2022/09/10 03:24:18;;;;;;;49.08;36.30;;;14.50;99.90;;;;;;7391976;19;20010;-84
2022/09/10 03:26:44;;;;;;;48.28;34.85;;;14.50;99.90;;;;;;7396694;19;20014;-85
2022/09/10 03:29:11;;;;;;;46.53;34.10;;;14.50;99.90;;;;;;7392607;19;20023;-85
2022/09/10 03:31:38;;;;;;;47.03;34.13;;;14.50;99.90;;;;;;7391448;19;20007;-85
2022/09/10 03:34:05;;;;;;;50.47;35.22;;;14.50;99.90;;;;;;7392918;19;20082;-84
2022/09/10 03:36:31;;;;;;;52.13;35.10;;;14.50;99.90;;;;;;7393011;19;20390;-84
2022/09/10 03:38:58;;;;;;;54.13;37.38;;;14.50;99.90;;;;;;7392943;19;20018;-85
2022/09/10 03:41:27;;;;;;;52.75;36.95;;;14.50;99.90;;;;;;7394208;19;20560;-85
2022/09/10 03:43:56;;;;;;;48.45;35.70;;;14.50;99.90;;;;;;7390878;19;20015;-84
2022/09/10 03:46:22;;;;;;;53.90;37.58;;;14.50;99.90;;;;;;7391237;19;20084;-84
2022/09/10 03:48:48;;;;;;;45.13;32.70;;;14.50;99.90;;;;;;7392028;19;20039;-85
2022/09/10 03:51:15;;;;;;;46.72;35.65;;;14.60;99.90;;;;;;7396254;19;20015;-84
2022/09/10 03:53:42;;;;;;;51.00;36.08;;;14.60;99.90;;;;;;7398475;19;20042;-85
2022/09/10 03:56:11;;;;;;;46.85;35.35;;;14.70;99.90;;;;;;7399600;19;20010;-84
2022/09/10 03:58:37;;;;;;;45.58;35.22;;;14.70;99.90;;;;;;7402234;19;20014;-84
2022/09/10 04:01:03;;;;;;;44.97;35.28;;;14.70;99.90;;;;;;7398506;19;20040;-85
2022/09/10 04:03:29;;;;;;;47.05;35.38;;;14.70;99.90;;;;;;7400557;19;20014;-85
2022/09/10 04:05:56;;;;;;;39.38;32.40;;;14.70;99.90;;;;;;7401474;19;20035;-85
2022/09/10 04:08:22;;;;;;;51.97;36.50;;;14.80;99.90;;;;;;7399184;19;20014;-85
2022/09/10 04:10:48;;;;;;;48.55;35.15;;;14.70;99.90;;;;;;7399764;19;20516;-84
2022/09/10 04:13:14;;;;;;;54.33;36.80;;;14.80;99.90;;;;;;7399481;19;20337;-85
2022/09/10 04:15:43;;;;;;;47.92;35.25;;;14.80;99.90;;;;;;7401258;19;20479;-85
2022/09/10 04:18:10;;;;;;;49.00;35.35;;;14.80;99.90;;;;;;7398941;19;20017;-85
2022/09/10 04:20:37;;;;;;;49.13;36.22;;;14.80;99.90;;;;;;7399533;19;20014;-84
2022/09/10 04:23:04;;;;;;;50.88;35.65;;;14.80;99.90;;;;;;7397993;19;20086;-84
2022/09/10 04:25:30;;;;;;;50.00;35.92;;;14.80;99.90;;;;;;7402947;19;20014;-85
2022/09/10 04:27:56;;;;;;;53.00;37.03;;;14.80;99.90;;;;;;7398977;19;20010;-85
2022/09/10 04:30:22;;;;;;;48.20;34.50;;;14.80;99.90;;;;;;7398605;19;20011;-85
2022/09/10 04:32:48;;;;;;;49.25;35.55;;;14.80;99.90;;;;;;7399133;19;20006;-84
2022/09/10 04:35:14;;;;;;;55.50;37.92;;;14.80;99.90;;;;;;7398575;19;20014;-85
2022/09/10 04:37:41;;;;;;;51.15;36.53;;;14.80;99.90;;;;;;7398647;19;20011;-84
2022/09/10 04:40:08;;;;;;;50.50;35.40;;;14.80;99.90;;;;;;7396691;19;20015;-83
2022/09/10 04:42:34;;;;;;;51.88;37.10;;;14.80;99.90;;;;;;7398316;19;20028;-84
2022/09/10 04:45:00;;;;;;;55.53;36.60;;;14.80;99.90;;;;;;7397159;19;20011;-85
2022/09/10 04:47:26;;;;;;;49.58;36.38;;;14.80;99.90;;;;;;7398201;19;20015;-85
2022/09/10 04:49:51;;;;;;;48.95;34.95;;;14.80;99.90;;;;;;7398593;19;20006;-85
2022/09/10 04:52:19;;;;;;;48.13;34.53;;;14.80;99.90;;;;;;7398030;19;20010;-84
2022/09/10 04:54:44;;;;;;;54.22;35.67;;;14.90;99.90;;;;;;7398393;19;20523;-85
2022/09/10 04:57:11;;;;;;;47.30;34.25;;;14.90;99.90;;;;;;7397792;19;20014;-85
2022/09/10 04:59:37;;;;;;;50.38;36.67;;;14.90;99.90;;;;;;7396338;19;20007;-84
2022/09/10 05:02:03;;;;;;;60.50;37.90;;;14.90;99.90;;;;;;7393632;19;20026;-85
2022/09/10 05:04:32;;;;;;;52.88;36.30;;;14.90;99.90;;;;;;7398087;19;20031;-84
2022/09/10 05:06:58;;;;;;;49.42;35.20;;;14.90;99.90;;;;;;7396640;19;20329;-84
2022/09/10 05:09:24;;;;;;;47.45;35.08;;;14.90;99.90;;;;;;7396469;19;20010;-85
2022/09/10 05:11:50;;;;;;;51.78;36.28;;;14.90;99.90;;;;;;7398869;19;20018;-84
2022/09/10 05:14:15;;;;;;;53.90;35.88;;;14.90;99.90;;;;;;7397301;19;20010;-84
2022/09/10 05:16:42;;;;;;;46.65;34.13;;;14.90;99.90;;;;;;7395390;19;20014;-85
2022/09/10 05:19:07;;;;;;;49.65;35.10;;;14.90;99.90;;;;;;7396844;19;20359;-85
2022/09/10 05:21:33;;;;;;;52.63;36.42;;;14.90;99.90;;;;;;7398527;19;20023;-84
2022/09/10 05:23:59;;;;;;;50.92;35.75;;;14.90;99.90;;;;;;7398133;19;20373;-84
2022/09/10 05:26:26;;;;;;;53.10;35.15;;;14.90;99.90;;;;;;7398021;19;20351;-84
2022/09/10 05:28:52;;;;;;;53.80;34.95;;;14.90;99.90;;;;;;7395954;19;20011;-84
2022/09/10 05:31:18;;;;;;;55.53;34.65;;;14.90;99.90;;;;;;7397648;19;20011;-84
2022/09/10 05:33:45;;;;;;;57.33;38.22;;;15.00;99.90;;;;;;7396445;19;20024;-85
2022/09/10 05:36:11;;;;;;;52.88;35.15;;;14.90;99.90;;;;;;7400243;19;20043;-84
2022/09/10 05:38:38;;;;;;;48.17;34.45;;;15.00;99.90;;;;;;7396675;19;20022;-84
2022/09/10 05:41:05;;;;;;;59.75;38.90;;;14.90;99.90;;;;;;7399203;19;20029;-85
2022/09/10 05:43:32;;;;;;;55.90;35.38;;;15.00;99.90;;;;;;7393612;19;20014;-84
2022/09/10 05:45:57;;;;;;;51.92;35.15;;;15.00;99.90;;;;;;7394664;19;20492;-84
2022/09/10 05:48:23;;;;;;;50.20;33.58;;;15.00;99.90;;;;;;7395878;19;20006;-85
2022/09/10 05:50:49;;;;;;;55.97;36.03;;;15.00;99.90;;;;;;7395850;19;20010;-85
2022/09/10 05:53:15;;;;;;;45.33;34.30;;;15.00;99.90;;;;;;7394576;19;20019;-84
2022/09/10 05:55:42;;;;;;;52.05;34.95;;;15.10;99.90;;;;;;7395699;19;20015;-85
2022/09/10 05:58:08;;;;;;;53.97;33.97;;;15.00;99.90;;;;;;7398695;19;20010;-85
2022/09/10 06:00:35;;;;;;;48.60;32.88;;;15.10;99.90;;;;;;7395615;19;20388;-85
2022/09/10 06:03:01;;;;;;;49.08;32.45;;;15.10;99.90;;;;;;7399190;19;20020;-85
2022/09/10 06:05:27;;;;;;;52.60;33.85;;;15.10;99.90;;;;;;7395242;19;20018;-85
2022/09/10 06:07:53;;;;;;;48.60;33.58;;;15.20;99.90;;;;;;7395703;19;20015;-85
2022/09/10 06:10:19;;;;;;;49.35;34.05;;;15.10;99.90;;;;;;7397439;19;20029;-85
2022/09/10 06:12:50;;;;;;;51.03;34.42;;;15.10;99.90;;;;;;7395543;19;20124;-85
2022/09/10 06:15:17;;;;;;;47.45;32.28;;;15.20;99.90;;;;;;7397684;19;20017;-85
2022/09/10 06:17:44;;;;;;;48.40;33.03;;;15.20;99.90;;;;;;7394806;19;20022;-85
2022/09/10 06:20:11;;;;;;;45.58;33.05;;;15.20;99.90;;;;;;7395525;19;20006;-85
2022/09/10 06:22:38;;;;;;;57.33;33.85;;;15.20;99.90;;;;;;7394516;19;20035;-84
2022/09/10 06:25:05;;;;;;;43.33;31.27;;;15.30;99.90;;;;;;7393110;19;20479;-84
2022/09/10 06:27:31;;;;;;;48.85;31.95;;;15.20;99.90;;;;;;7395645;19;20540;-84
2022/09/10 06:29:57;;;;;;;45.83;33.08;;;15.20;99.90;;;;;;7394395;19;20396;-84
2022/09/10 06:32:23;;;;;;;47.72;31.95;;;15.30;99.90;;;;;;7398595;19;20010;-85
2022/09/10 06:34:49;;;;;;;51.20;32.28;;;15.30;99.90;;;;;;7394572;19;20018;-84
2022/09/10 06:37:16;;;;;;;44.97;31.10;;;15.30;99.90;;;;;;7394777;19;20039;-84
2022/09/10 06:39:43;;;;;;;46.03;32.03;;;15.30;99.90;;;;;;7392958;19;20011;-84
2022/09/10 06:42:09;;;;;;;45.17;31.45;;;15.30;99.90;;;;;;7394275;19;20021;-85
2022/09/10 06:44:34;;;;;;;47.33;32.83;;;15.30;99.90;;;;;;7393536;19;20014;-84
2022/09/10 06:47:01;;;;;;;43.65;31.27;;;15.40;99.90;;;;;;7394041;19;20684;-85
2022/09/10 06:49:28;;;;;;;45.03;30.88;;;15.40;99.90;;;;;;7397782;19;20022;-84
2022/09/10 06:51:54;;;;;;;39.22;28.45;;;15.40;99.90;;;;;;7395063;19;20356;-85
2022/09/10 06:54:20;;;;;;;44.10;31.33;;;15.40;99.90;;;;;;7394345;19;20483;-84
2022/09/10 06:56:47;;;;;;;37.22;28.63;;;15.50;99.90;;;;;;7394466;19;20045;-84
2022/09/10 06:59:13;;;;;;;43.35;30.13;;;15.50;99.90;;;;;;7394129;19;20118;-84
2022/09/10 07:01:40;;;;;;;43.80;32.08;;;15.50;99.90;;;;;;7395566;19;20483;-85
2022/09/10 07:04:07;;;;;;;41.72;30.17;;;15.60;99.90;;;;;;7394606;19;20011;-85
2022/09/10 07:06:35;;;;;;;36.88;28.30;;;15.60;99.90;;;;;;7396021;19;20015;-85
2022/09/10 07:09:02;;;;;;;44.20;28.25;;;15.70;99.90;;;;;;7395501;19;20055;-84
2022/09/10 07:11:29;;;;;;;42.60;30.48;;;15.70;99.90;;;;;;7393550;19;20014;-85
2022/09/10 07:13:55;;;;;;;34.97;27.45;;;15.70;99.90;;;;;;7393176;19;20441;-84
2022/09/10 07:16:22;;;;;;;35.33;25.63;;;15.80;99.90;;;;;;7393564;19;20027;-84
2022/09/10 07:18:50;;;;;;;33.88;26.67;;;15.90;99.90;;;;;;7392683;19;20014;-84
2022/09/10 07:21:17;;;;;;;38.90;26.95;;;15.80;99.90;;;;;;7391774;19;20480;-85
2022/09/10 07:23:44;;;;;;;28.20;21.73;;;15.80;99.90;;;;;;7396020;19;20003;-84
2022/09/10 07:26:13;;;;;;;38.17;28.52;;;15.90;99.90;;;;;;7391314;19;20022;-85
2022/09/10 07:28:41;;;;;;;35.38;27.58;;;15.90;99.90;;;;;;7393007;19;20492;-85
2022/09/10 07:31:19;;;;;;;37.25;27.67;;;15.80;99.90;;;;;;7392928;19;20025;-85
2022/09/10 07:33:46;;;;;;;35.55;26.75;;;15.90;99.90;;;;;;7393616;19;20078;-85
2022/09/10 07:36:13;;;;;;;38.30;28.30;;;15.80;99.90;;;;;;7392952;19;20018;-84
2022/09/10 07:38:40;;;;;;;36.42;27.65;;;15.90;99.90;;;;;;7392934;19;20036;-85
2022/09/10 07:41:10;;;;;;;36.75;27.55;;;15.80;99.90;;;;;;7396971;19;20018;-84
2022/09/10 07:43:42;;;;;;;32.53;26.98;;;15.90;99.90;;;;;;7392113;19;20472;-85
2022/09/10 07:46:19;;;;;;;35.75;27.20;;;16.00;99.90;;;;;;7391796;19;20465;-85
2022/09/10 07:48:47;;;;;;;39.47;27.90;;;16.00;99.90;;;;;;7392181;19;20015;-85
2022/09/10 07:51:17;;;;;;;39.05;27.70;;;16.10;99.90;;;;;;7392439;19;20364;-85
2022/09/10 07:53:44;;;;;;;32.80;26.60;;;16.10;99.90;;;;;;7390748;19;20118;-85
2022/09/10 07:56:11;;;;;;;37.83;27.60;;;16.10;99.90;;;;;;7393274;19;20006;-85
2022/09/10 07:58:38;;;;;;;36.53;26.42;;;16.10;99.90;;;;;;7392711;19;20093;-85
2022/09/10 08:01:10;;;;;;;34.50;26.45;;;16.10;99.90;;;;;;7392341;19;20341;-85
2022/09/10 08:03:37;;;;;;;36.65;25.27;;;16.10;99.90;;;;;;7393844;19;20014;-84
2022/09/10 08:06:05;;;;;;;32.00;23.75;;;16.10;99.90;;;;;;7395296;19;20014;-85
2022/09/10 08:08:34;;;;;;;32.28;24.25;;;16.20;99.90;;;;;;7395561;19;20018;-85
2022/09/10 08:11:16;;;;;;;34.42;24.65;;;16.20;99.90;;;;;;7392050;19;20010;-85
2022/09/10 08:13:49;;;;;;;23.33;16.40;;;16.20;99.90;;;;;;7394321;19;20708;-84
2022/09/10 08:16:18;;;;;;;27.92;22.35;;;16.10;99.90;;;;;;7391755;19;20010;-84
2022/09/10 08:18:45;;;;;;;29.38;22.10;;;16.10;99.90;;;;;;7391609;19;20014;-85
2022/09/10 08:21:12;;;;;;;22.58;16.95;;;16.20;99.90;;;;;;7391723;19;20011;-85
2022/09/10 08:23:38;;;;;;;30.45;21.20;;;16.20;99.90;;;;;;7393905;19;20352;-84
2022/09/10 08:26:06;;;;;;;32.75;23.63;;;16.20;99.90;;;;;;7391379;19;20015;-85
2022/09/10 08:28:33;;;;;;;35.35;24.40;;;16.30;99.90;;;;;;7391413;19;20015;-85
2022/09/10 08:31:03;;;;;;;17.45;14.00;;;16.30;99.90;;;;;;7393788;19;20011;-84
2022/09/10 08:33:30;;;;;;;28.98;22.65;;;16.30;99.90;;;;;;7389560;19;20031;-84
2022/09/10 08:36:00;;;;;;;27.75;21.67;;;16.30;99.90;;;;;;7390576;19;20022;-84
2022/09/10 08:38:30;;;;;;;30.33;19.85;;;16.40;99.90;;;;;;7397938;19;20014;-85
2022/09/10 08:40:58;;;;;;;28.88;21.75;;;16.40;99.90;;;;;;7397286;19;20031;-85
2022/09/10 08:43:41;;;;;;;31.70;23.50;;;16.40;99.90;;;;;;7397566;19;20040;-85
2022/09/10 08:46:36;;;;;;;36.75;26.80;;;16.40;99.90;;;;;;7394660;19;20040;-85
2022/09/10 08:49:16;;;;;;;39.25;25.83;;;16.50;99.90;;;;;;7398504;19;20043;-85
2022/09/10 08:51:46;;;;;;;26.90;22.15;;;16.60;99.90;;;;;;7398293;19;20375;-85
2022/09/10 08:54:25;;;;;;;31.83;23.77;;;16.60;99.90;;;;;;7397958;19;20079;-84
2022/09/10 08:56:57;;;;;;;12.05;9.05;;;16.70;99.90;;;;;;7397927;19;20015;-85
2022/09/10 08:59:27;;;;;;;27.92;21.75;;;16.80;99.90;;;;;;7396632;19;20028;-84
2022/09/10 09:02:10;;;;;;;31.95;21.77;;;17.00;99.90;;;;;;7396301;19;20043;-85
2022/09/10 09:04:43;;;;;;;28.08;21.83;;;17.00;99.90;;;;;;7402557;19;20022;-84
2022/09/10 09:07:18;;;;;;;27.42;20.83;;;17.00;99.90;;;;;;7397618;19;20554;-84
2022/09/10 09:09:48;;;;;;;15.32;9.85;;;17.10;99.90;;;;;;7397797;19;20015;-84
2022/09/10 09:12:24;;;;;;;26.90;19.85;;;17.10;99.90;;;;;;7398298;19;20014;-85
2022/09/10 09:15:02;;;;;;;23.73;19.65;;;17.30;99.90;;;;;;7395304;19;20011;-85
2022/09/10 09:17:44;;;;;;;22.50;18.80;;;17.30;99.90;;;;;;7396978;19;20074;-85
2022/09/10 09:20:17;;;;;;;26.00;19.38;;;17.20;99.90;;;;;;7397630;19;20011;-85
2022/09/10 09:22:46;;;;;;;25.75;18.58;;;17.10;99.90;;;;;;7399897;19;20015;-85
2022/09/10 09:25:21;;;;;;;26.02;20.27;;;17.10;99.90;;;;;;7397091;19;20014;-84
2022/09/10 09:27:52;;;;;;;26.77;18.92;;;17.10;99.90;;;;;;7397572;19;20014;-85
2022/09/10 09:30:21;;;;;;;26.02;18.65;;;17.20;99.90;;;;;;7397102;19;20006;-85
2022/09/10 09:32:48;;;;;;;24.08;18.10;;;17.20;99.90;;;;;;7395201;19;20022;-85
2022/09/10 09:35:18;;;;;;;22.33;19.23;;;17.20;99.90;;;;;;7395071;19;20026;-85
2022/09/10 09:37:47;;;;;;;25.35;18.85;;;17.20;99.90;;;;;;7396385;19;20015;-85
2022/09/10 09:40:13;;;;;;;22.58;17.77;;;17.20;99.90;;;;;;7394996;19;20014;-85
2022/09/10 09:43:03;;;;;;;23.77;17.75;;;17.20;99.90;;;;;;7396092;19;20021;-85
2022/09/10 09:45:38;;;;;;;25.40;18.77;;;17.20;99.90;;;;;;7394876;19;20018;-85
2022/09/10 09:48:06;;;;;;;24.38;17.85;;;17.20;99.90;;;;;;7394556;19;20015;-85
2022/09/10 09:50:35;;;;;;;28.02;18.85;;;17.10;99.90;;;;;;7396059;19;20021;-85
2022/09/10 09:53:04;;;;;;;24.67;19.35;;;17.20;99.90;;;;;;7396402;19;20454;-85
2022/09/10 09:55:42;;;;;;;25.15;19.20;;;17.10;99.90;;;;;;7397629;19;20496;-85
2022/09/10 09:58:20;;;;;;;22.38;19.73;;;17.10;99.90;;;;;;7395966;19;20011;-85
2022/09/10 10:00:51;;;;;;;25.73;18.23;;;17.10;99.90;;;;;;7396284;19;20093;-85
2022/09/10 10:03:24;;;;;;;24.98;18.20;;;17.00;99.90;;;;;;7397206;19;20014;-85
2022/09/10 10:05:59;;;;;;;24.75;17.98;;;17.00;99.90;;;;;;7399305;19;20348;-85
2022/09/10 10:08:29;;;;;;;19.17;12.55;;;17.00;99.90;;;;;;7395804;19;20113;-85
2022/09/10 10:10:56;;;;;;;17.20;13.20;;;17.00;99.90;;;;;;7395372;19;20857;-85
2022/09/10 10:13:23;;;;;;;23.05;17.13;;;17.20;99.90;;;;;;7399256;19;20014;-85
2022/09/10 10:15:49;;;;;;;24.90;17.95;;;17.30;99.90;;;;;;7395796;19;20006;-85
2022/09/10 10:18:21;;;;;;;12.63;8.85;;;17.40;99.90;;;;;;7393716;19;20014;-85
2022/09/10 10:20:48;;;;;;;20.45;17.17;;;17.50;99.90;;;;;;7395445;19;20006;-85
2022/09/10 10:23:38;;;;;;;22.85;16.23;;;17.60;99.90;;;;;;7394412;19;20040;-85
2022/09/10 10:26:19;;;;;;;21.05;15.52;;;17.70;99.90;;;;;;7394751;19;20010;-85
2022/09/10 10:29:05;;;;;;;18.00;14.13;;;17.80;99.90;;;;;;7395335;19;20035;-85
2022/09/10 10:31:36;;;;;;;18.90;14.25;;;17.80;99.90;;;;;;7395181;19;20089;-85
2022/09/10 10:34:16;;;;;;;18.10;14.18;;;17.80;99.90;;;;;;7394419;19;20010;-85
2022/09/10 10:37:17;;;;;;;19.13;13.65;;;17.80;99.90;;;;;;7394907;19;20081;-85
2022/09/10 10:40:13;;;;;;;20.00;14.50;;;17.80;99.90;;;;;;7394937;19;20468;-85
2022/09/10 10:42:54;;;;;;;19.17;14.02;;;17.90;99.90;;;;;;7393922;19;20025;-84
2022/09/10 10:45:37;;;;;;;18.58;15.48;;;17.90;99.90;;;;;;7393748;19;20042;-85
2022/09/10 10:48:15;;;;;;;18.95;14.55;;;18.00;99.90;;;;;;7398590;19;20027;-84
2022/09/10 10:51:10;;;;;;;18.35;15.57;;;18.00;99.90;;;;;;7393949;19;20015;-85
2022/09/10 10:54:17;;;;;;;20.33;15.18;;;17.90;99.90;;;;;;7392226;19;20047;-85
2022/09/10 10:56:51;;;;;;;19.92;14.77;;;17.90;99.90;;;;;;7393838;19;20014;-85
2022/09/10 10:59:32;;;;;;;20.55;14.85;;;17.90;99.90;;;;;;7392040;19;20014;-85
2022/09/10 11:02:32;;;;;;;19.63;16.23;;;17.90;99.90;;;;;;7392443;19;20025;-85
2022/09/10 11:05:06;;;;;;;22.30;15.55;;;18.00;99.90;;;;;;7397741;19;20015;-85
2022/09/10 11:07:42;;;;;;;20.17;15.27;;;18.10;99.90;;;;;;7393895;19;20381;-85
2022/09/10 11:10:34;;;;;;;20.90;15.13;;;18.20;99.90;;;;;;7391972;19;20014;-84
2022/09/10 11:13:18;;;;;;;19.52;14.63;;;18.30;99.90;;;;;;7393352;19;20014;-84
2022/09/10 11:15:58;;;;;;;18.48;15.27;;;18.30;99.90;;;;;;7393627;19;20010;-84
2022/09/10 11:18:33;;;;;;;17.50;14.48;;;18.30;99.90;;;;;;7392826;19;20409;-84
2022/09/10 11:21:07;;;;;;;18.63;14.15;;;18.50;99.90;;;;;;7395790;19;20031;-84
2022/09/10 11:23:45;;;;;;;17.20;13.85;;;18.70;99.90;;;;;;7392770;19;20554;-84
2022/09/10 11:26:12;;;;;;;15.73;13.23;;;18.90;99.90;;;;;;7393064;19;20014;-84
2022/09/10 11:28:46;;;;;;;16.92;13.57;;;19.20;99.90;;;;;;7391680;19;20021;-84
2022/09/10 11:31:20;;;;;;;17.55;13.15;;;19.40;99.90;;;;;;7392638;19;20014;-84
2022/09/10 11:34:05;;;;;;;15.50;13.90;;;19.50;99.90;;;;;;7391386;19;20030;-84
2022/09/10 11:36:37;;;;;;;18.73;15.40;;;19.50;99.90;;;;;;7391430;19;20239;-84
2022/09/10 11:39:12;;;;;;;19.27;16.30;;;19.40;99.90;;;;;;7395858;19;20522;-84
2022/09/10 11:41:41;;;;;;;17.90;15.27;;;19.50;99.90;;;;;;7393061;19;20011;-83
2022/09/10 11:44:27;;;;;;;17.83;15.20;;;19.50;99.90;;;;;;7391467;19;20031;-85
2022/09/10 11:46:59;;;;;;;18.17;14.27;;;19.40;99.90;;;;;;7392551;19;20021;-85
2022/09/10 11:49:46;;;;;;;18.98;15.85;;;19.30;99.90;;;;;;7392393;19;20015;-84
2022/09/10 11:52:12;;;;;;;16.60;14.30;;;19.30;99.90;;;;;;7392838;19;20010;-85
2022/09/10 11:54:39;;;;;;;17.38;14.15;;;19.30;99.90;;;;;;7394826;19;20017;-85
2022/09/10 11:57:30;;;;;;;16.33;13.57;;;19.30;99.90;;;;;;7391263;19;20480;-85
2022/09/10 12:00:15;;;;;;;15.43;13.82;;;19.40;99.90;;;;;;7396290;19;20066;-83
2022/09/10 12:02:58;;;;;;;15.65;13.55;;;19.40;99.90;;;;;;7399695;19;20019;-85
2022/09/10 12:06:08;;;;;;;15.23;13.35;;;19.50;99.90;;;;;;7401647;19;20484;-84
2022/09/10 12:08:39;;;;;;;20.52;17.15;;;19.50;99.90;;;;;;7389176;19;20017;-84
2022/09/10 12:11:13;;;;;;;18.05;16.13;;;19.70;99.90;;;;;;7389996;19;20011;-84
2022/09/10 12:13:41;;;;;;;25.90;18.92;;;19.70;99.90;;;;;;7398346;19;20027;-84
2022/09/10 12:16:21;;;;;;;20.58;17.90;;;19.60;99.90;;;;;;7399098;19;20436;-84
2022/09/10 12:18:51;;;;;;;22.58;19.15;;;19.70;99.90;;;;;;7399020;19;20366;-84
2022/09/10 12:21:43;;;;;;;22.27;18.65;;;19.70;99.90;;;;;;7402332;19;20027;-85
2022/09/10 12:24:29;;;;;;;22.25;19.30;;;19.80;99.90;;;;;;7396444;19;20010;-85
2022/09/10 12:27:00;;;;;;;25.33;19.92;;;19.80;99.90;;;;;;7399639;19;20011;-84
2022/09/10 12:29:47;;;;;;;18.98;16.90;;;19.80;99.90;;;;;;7400457;19;20014;-84
2022/09/10 12:32:27;;;;;;;24.52;17.70;;;19.90;99.90;;;;;;7399170;19;20014;-84
2022/09/10 12:35:30;;;;;;;22.80;19.25;;;19.90;99.90;;;;;;7399502;19;20016;-84
2022/09/10 12:38:34;;;;;;;25.60;20.38;;;19.90;99.90;;;;;;7398607;19;20011;-85
2022/09/10 12:41:01;;;;;;;24.63;18.90;;;19.90;99.90;;;;;;7398203;19;20070;-85
2022/09/10 12:43:39;;;;;;;23.73;20.10;;;19.80;99.90;;;;;;7396845;19;20022;-84
2022/09/10 12:46:08;;;;;;;22.73;18.67;;;19.80;99.90;;;;;;7398955;19;20379;-85
2022/09/10 12:48:59;;;;;;;21.33;17.13;;;19.80;99.90;;;;;;7398645;19;20103;-84